sensor_id;sensor_type;location;lat;lon;timestamp;pressure;altitude;pressure_sealevel;temperature;humidity
2268;BME280;11052;43.338;25.502;2023-06-22T00:01:16;100786.41;;;20.35;100.00
2268;BME280;11052;43.338;25.502;2023-06-22T00:03:43;100790.53;;;20.25;100.00
2268;BME280;11052;43.338;25.502;2023-06-22T00:06:10;100781.72;;;20.12;100.00
2268;BME280;11052;43.338;25.502;2023-06-22T00:08:39;100787.63;;;20.01;100.00
2268;BME280;11052;43.338;25.502;2023-06-22T00:11:06;100785.59;;;19.92;100.00
2268;BME280;11052;43.338;25.502;2023-06-22T00:13:33;100783.81;;;19.92;100.00
2268;BME280;11052;43.338;25.502;2023-06-22T00:16:00;100778.34;;;19.95;100.00
2268;BME280;11052;43.338;25.502;2023-06-22T00:18:28;100783.06;;;19.90;100.00
2268;BME280;11052;43.338;25.502;2023-06-22T00:20:56;100786.63;;;19.89;100.00
2268;BME280;11052;43.338;25.502;2023-06-22T00:23:26;100786.81;;;19.86;100.00
2268;BME280;11052;43.338;25.502;2023-06-22T00:25:55;100776.19;;;19.88;100.00
2268;BME280;11052;43.338;25.502;2023-06-22T00:28:22;100779.50;;;19.91;100.00
2268;BME280;11052;43.338;25.502;2023-06-22T00:30:49;100773.75;;;19.85;100.00
2268;BME280;11052;43.338;25.502;2023-06-22T00:33:17;100770.66;;;19.78;100.00
2268;BME280;11052;43.338;25.502;2023-06-22T00:35:44;100775.06;;;19.78;100.00
2268;BME280;11052;43.338;25.502;2023-06-22T00:38:11;100768.13;;;19.77;100.00
2268;BME280;11052;43.338;25.502;2023-06-22T00:40:38;100774.88;;;19.67;100.00
2268;BME280;11052;43.338;25.502;2023-06-22T00:43:07;100781.16;;;19.64;100.00
2268;BME280;11052;43.338;25.502;2023-06-22T00:45:34;100785.75;;;19.60;100.00
2268;BME280;11052;43.338;25.502;2023-06-22T00:48:01;100785.56;;;19.63;100.00
2268;BME280;11052;43.338;25.502;2023-06-22T00:50:30;100786.34;;;19.66;100.00
2268;BME280;11052;43.338;25.502;2023-06-22T00:53:03;100784.72;;;19.63;100.00
2268;BME280;11052;43.338;25.502;2023-06-22T00:55:34;100785.19;;;19.55;100.00
2268;BME280;11052;43.338;25.502;2023-06-22T00:58:03;100793.16;;;19.54;100.00
2268;BME280;11052;43.338;25.502;2023-06-22T01:00:34;100784.63;;;19.35;100.00
2268;BME280;11052;43.338;25.502;2023-06-22T01:03:02;100780.75;;;19.26;100.00
2268;BME280;11052;43.338;25.502;2023-06-22T01:05:34;100773.63;;;19.28;100.00
2268;BME280;11052;43.338;25.502;2023-06-22T01:08:19;100773.38;;;19.32;100.00
2268;BME280;11052;43.338;25.502;2023-06-22T01:10:52;100767.91;;;19.36;100.00
2268;BME280;11052;43.338;25.502;2023-06-22T01:13:28;100780.13;;;19.37;100.00
2268;BME280;11052;43.338;25.502;2023-06-22T01:16:02;100773.19;;;19.36;100.00
2268;BME280;11052;43.338;25.502;2023-06-22T01:18:31;100772.59;;;19.30;100.00
2268;BME280;11052;43.338;25.502;2023-06-22T01:21:02;100781.69;;;19.25;100.00
2268;BME280;11052;43.338;25.502;2023-06-22T01:23:44;100768.91;;;19.19;100.00
2268;BME280;11052;43.338;25.502;2023-06-22T01:26:18;100776.13;;;19.15;100.00
2268;BME280;11052;43.338;25.502;2023-06-22T01:28:50;100775.38;;;19.13;100.00
2268;BME280;11052;43.338;25.502;2023-06-22T01:31:19;100783.34;;;19.12;100.00
2268;BME280;11052;43.338;25.502;2023-06-22T01:33:49;100786.44;;;19.04;100.00
2268;BME280;11052;43.338;25.502;2023-06-22T01:36:17;100789.06;;;19.04;100.00
2268;BME280;11052;43.338;25.502;2023-06-22T01:38:45;100786.03;;;18.96;100.00
2268;BME280;11052;43.338;25.502;2023-06-22T01:41:14;100780.78;;;18.96;100.00
2268;BME280;11052;43.338;25.502;2023-06-22T01:43:42;100789.59;;;18.95;100.00
2268;BME280;11052;43.338;25.502;2023-06-22T01:46:12;100788.56;;;18.97;100.00
2268;BME280;11052;43.338;25.502;2023-06-22T01:48:39;100788.56;;;18.97;100.00
2268;BME280;11052;43.338;25.502;2023-06-22T01:51:07;100788.47;;;18.99;100.00
2268;BME280;11052;43.338;25.502;2023-06-22T01:53:34;100796.94;;;19.04;100.00
2268;BME280;11052;43.338;25.502;2023-06-22T01:56:04;100797.97;;;19.02;100.00
2268;BME280;11052;43.338;25.502;2023-06-22T01:58:32;100792.03;;;18.98;100.00
2268;BME280;11052;43.338;25.502;2023-06-22T02:01:09;100788.84;;;18.93;100.00
2268;BME280;11052;43.338;25.502;2023-06-22T02:03:43;100785.47;;;18.75;100.00
2268;BME280;11052;43.338;25.502;2023-06-22T02:06:25;100799.34;;;18.61;100.00
2268;BME280;11052;43.338;25.502;2023-06-22T02:08:58;100803.09;;;18.73;100.00
2268;BME280;11052;43.338;25.502;2023-06-22T02:11:29;100810.63;;;18.79;100.00
2268;BME280;11052;43.338;25.502;2023-06-22T02:13:58;100818.59;;;18.78;100.00
2268;BME280;11052;43.338;25.502;2023-06-22T02:16:25;100819.69;;;18.74;100.00
2268;BME280;11052;43.338;25.502;2023-06-22T02:18:56;100825.28;;;18.67;100.00
2268;BME280;11052;43.338;25.502;2023-06-22T02:21:27;100825.44;;;18.64;100.00
2268;BME280;11052;43.338;25.502;2023-06-22T02:23:54;100831.47;;;18.66;100.00
2268;BME280;11052;43.338;25.502;2023-06-22T02:26:21;100832.41;;;18.65;100.00
2268;BME280;11052;43.338;25.502;2023-06-22T02:28:49;100834.09;;;18.66;100.00
2268;BME280;11052;43.338;25.502;2023-06-22T02:31:16;100836.03;;;18.63;100.00
2268;BME280;11052;43.338;25.502;2023-06-22T02:33:43;100842.31;;;18.60;100.00
2268;BME280;11052;43.338;25.502;2023-06-22T02:36:12;100843.91;;;18.63;100.00
2268;BME280;11052;43.338;25.502;2023-06-22T02:38:40;100839.59;;;18.62;100.00
2268;BME280;11052;43.338;25.502;2023-06-22T02:41:14;100848.16;;;18.65;100.00
2268;BME280;11052;43.338;25.502;2023-06-22T02:43:44;100848.31;;;18.62;100.00
2268;BME280;11052;43.338;25.502;2023-06-22T02:46:12;100844.06;;;18.60;100.00
2268;BME280;11052;43.338;25.502;2023-06-22T02:48:39;100850.09;;;18.62;100.00
2268;BME280;11052;43.338;25.502;2023-06-22T02:51:06;100847.47;;;18.62;100.00
2268;BME280;11052;43.338;25.502;2023-06-22T02:53:35;100854.78;;;18.40;100.00
2268;BME280;11052;43.338;25.502;2023-06-22T02:56:02;100855.94;;;18.34;100.00
2268;BME280;11052;43.338;25.502;2023-06-22T02:58:31;100854.19;;;18.34;100.00
2268;BME280;11052;43.338;25.502;2023-06-22T03:01:04;100855.53;;;18.42;100.00
2268;BME280;11052;43.338;25.502;2023-06-22T03:03:31;100861.56;;;18.44;100.00
2268;BME280;11052;43.338;25.502;2023-06-22T03:05:58;100869.28;;;18.47;100.00
2268;BME280;11052;43.338;25.502;2023-06-22T03:08:27;100878.59;;;18.52;100.00
2268;BME280;11052;43.338;25.502;2023-06-22T03:10:56;100870.47;;;18.57;100.00
2268;BME280;11052;43.338;25.502;2023-06-22T03:13:23;100882.47;;;18.62;100.00
2268;BME280;11052;43.338;25.502;2023-06-22T03:15:50;100874.41;;;18.65;100.00
2268;BME280;11052;43.338;25.502;2023-06-22T03:18:18;100871.19;;;18.60;100.00
2268;BME280;11052;43.338;25.502;2023-06-22T03:20:47;100873.63;;;18.30;100.00
2268;BME280;11052;43.338;25.502;2023-06-22T03:23:15;100868.31;;;18.32;100.00
2268;BME280;11052;43.338;25.502;2023-06-22T03:25:42;100863.59;;;18.39;100.00
2268;BME280;11052;43.338;25.502;2023-06-22T03:28:11;100873.50;;;18.49;100.00
2268;BME280;11052;43.338;25.502;2023-06-22T03:30:39;100875.81;;;18.55;100.00
2268;BME280;11052;43.338;25.502;2023-06-22T03:33:06;100874.50;;;18.80;100.00
2268;BME280;11052;43.338;25.502;2023-06-22T03:35:33;100868.50;;;18.93;100.00
2268;BME280;11052;43.338;25.502;2023-06-22T03:38:00;100874.44;;;18.97;100.00
2268;BME280;11052;43.338;25.502;2023-06-22T03:40:27;100874.44;;;18.97;100.00
2268;BME280;11052;43.338;25.502;2023-06-22T03:42:55;100880.53;;;18.97;100.00
2268;BME280;11052;43.338;25.502;2023-06-22T03:45:23;100874.09;;;19.03;100.00
2268;BME280;11052;43.338;25.502;2023-06-22T03:47:50;100878.13;;;19.09;100.00
2268;BME280;11052;43.338;25.502;2023-06-22T03:50:17;100879.72;;;19.11;100.00
2268;BME280;11052;43.338;25.502;2023-06-22T03:52:45;100886.59;;;19.14;100.00
2268;BME280;11052;43.338;25.502;2023-06-22T03:55:13;100885.06;;;19.25;100.00
2268;BME280;11052;43.338;25.502;2023-06-22T03:57:40;100881.31;;;19.29;100.00
2268;BME280;11052;43.338;25.502;2023-06-22T04:00:08;100888.69;;;19.39;100.00
2268;BME280;11052;43.338;25.502;2023-06-22T04:02:37;100891.72;;;19.47;100.00
2268;BME280;11052;43.338;25.502;2023-06-22T04:05:05;100890.47;;;19.54;100.00
2268;BME280;11052;43.338;25.502;2023-06-22T04:07:32;100892.75;;;19.60;100.00
2268;BME280;11052;43.338;25.502;2023-06-22T04:09:59;100894.59;;;19.74;100.00
2268;BME280;11052;43.338;25.502;2023-06-22T04:12:26;100895.06;;;19.80;100.00
2268;BME280;11052;43.338;25.502;2023-06-22T04:14:53;100886.25;;;19.95;100.00
2268;BME280;11052;43.338;25.502;2023-06-22T04:17:20;100892.81;;;20.03;100.00
2268;BME280;11052;43.338;25.502;2023-06-22T04:19:52;100903.66;;;20.12;100.00
2268;BME280;11052;43.338;25.502;2023-06-22T04:22:19;100904.63;;;20.25;100.00
2268;BME280;11052;43.338;25.502;2023-06-22T04:24:46;100895.97;;;20.38;100.00
2268;BME280;11052;43.338;25.502;2023-06-22T04:27:13;100890.91;;;20.49;100.00
2268;BME280;11052;43.338;25.502;2023-06-22T04:29:41;100889.88;;;20.66;100.00
2268;BME280;11052;43.338;25.502;2023-06-22T04:32:14;100890.66;;;20.80;100.00
2268;BME280;11052;43.338;25.502;2023-06-22T04:34:41;100894.00;;;21.11;100.00
2268;BME280;11052;43.338;25.502;2023-06-22T04:37:10;100893.03;;;21.53;100.00
2268;BME280;11052;43.338;25.502;2023-06-22T04:39:41;100909.34;;;21.98;100.00
2268;BME280;11052;43.338;25.502;2023-06-22T04:42:08;100910.78;;;22.29;100.00
2268;BME280;11052;43.338;25.502;2023-06-22T04:44:35;100908.34;;;22.38;100.00
2268;BME280;11052;43.338;25.502;2023-06-22T04:47:02;100909.09;;;22.77;100.00
2268;BME280;11052;43.338;25.502;2023-06-22T04:49:34;100910.16;;;23.24;100.00
2268;BME280;11052;43.338;25.502;2023-06-22T04:52:04;100918.31;;;23.68;100.00
2268;BME280;11052;43.338;25.502;2023-06-22T04:54:34;100925.88;;;23.97;100.00
2268;BME280;11052;43.338;25.502;2023-06-22T04:57:02;100921.19;;;24.00;100.00
2268;BME280;11052;43.338;25.502;2023-06-22T04:59:30;100915.81;;;24.35;100.00
2268;BME280;11052;43.338;25.502;2023-06-22T05:01:58;100916.06;;;24.77;100.00
2268;BME280;11052;43.338;25.502;2023-06-22T05:04:26;100922.06;;;24.90;100.00
2268;BME280;11052;43.338;25.502;2023-06-22T05:06:58;100911.47;;;25.12;100.00
2268;BME280;11052;43.338;25.502;2023-06-22T05:09:28;100909.34;;;25.27;100.00
2268;BME280;11052;43.338;25.502;2023-06-22T05:11:58;100910.81;;;25.52;100.00
2268;BME280;11052;43.338;25.502;2023-06-22T05:14:26;100912.97;;;25.58;100.00
2268;BME280;11052;43.338;25.502;2023-06-22T05:16:53;100911.53;;;25.54;100.00
2268;BME280;11052;43.338;25.502;2023-06-22T05:19:24;100916.50;;;25.79;100.00
2268;BME280;11052;43.338;25.502;2023-06-22T05:21:51;100913.44;;;26.05;100.00
2268;BME280;11052;43.338;25.502;2023-06-22T05:24:18;100923.88;;;26.38;100.00
2268;BME280;11052;43.338;25.502;2023-06-22T05:26:45;100915.56;;;26.53;100.00
2268;BME280;11052;43.338;25.502;2023-06-22T05:29:14;100920.25;;;26.70;100.00
2268;BME280;11052;43.338;25.502;2023-06-22T05:31:41;100922.09;;;26.89;100.00
2268;BME280;11052;43.338;25.502;2023-06-22T05:34:08;100927.78;;;26.65;100.00
2268;BME280;11052;43.338;25.502;2023-06-22T05:36:35;100924.94;;;26.97;100.00
2268;BME280;11052;43.338;25.502;2023-06-22T05:39:11;100923.00;;;27.08;100.00
2268;BME280;11052;43.338;25.502;2023-06-22T05:41:38;100925.56;;;27.29;100.00
2268;BME280;11052;43.338;25.502;2023-06-22T05:44:05;100930.66;;;27.71;100.00
2268;BME280;11052;43.338;25.502;2023-06-22T05:46:33;100930.31;;;28.03;100.00
2268;BME280;11052;43.338;25.502;2023-06-22T05:49:00;100928.88;;;28.37;100.00
2268;BME280;11052;43.338;25.502;2023-06-22T05:51:30;100931.16;;;28.60;100.00
2268;BME280;11052;43.338;25.502;2023-06-22T05:53:58;100940.03;;;28.78;100.00
2268;BME280;11052;43.338;25.502;2023-06-22T05:56:29;100929.00;;;28.63;100.00
2268;BME280;11052;43.338;25.502;2023-06-22T05:58:59;100940.44;;;28.93;100.00
2268;BME280;11052;43.338;25.502;2023-06-22T06:01:26;100939.00;;;28.98;100.00
2268;BME280;11052;43.338;25.502;2023-06-22T06:03:55;100943.41;;;28.80;100.00
2268;BME280;11052;43.338;25.502;2023-06-22T06:06:22;100931.47;;;29.12;100.00
2268;BME280;11052;43.338;25.502;2023-06-22T06:08:55;100931.94;;;29.60;100.00
2268;BME280;11052;43.338;25.502;2023-06-22T06:11:24;100928.81;;;29.65;100.00
2268;BME280;11052;43.338;25.502;2023-06-22T06:13:55;100927.75;;;29.76;100.00
2268;BME280;11052;43.338;25.502;2023-06-22T06:16:26;100927.28;;;29.62;100.00
2268;BME280;11052;43.338;25.502;2023-06-22T06:18:54;100930.56;;;29.74;100.00
2268;BME280;11052;43.338;25.502;2023-06-22T06:21:22;100927.34;;;29.88;100.00
2268;BME280;11052;43.338;25.502;2023-06-22T06:23:49;100933.88;;;30.12;100.00
2268;BME280;11052;43.338;25.502;2023-06-22T06:26:17;100923.50;;;29.91;100.00
2268;BME280;11052;43.338;25.502;2023-06-22T06:28:54;100920.09;;;29.81;100.00
2268;BME280;11052;43.338;25.502;2023-06-22T06:31:22;100921.09;;;29.62;100.00
2268;BME280;11052;43.338;25.502;2023-06-22T06:33:49;100916.28;;;29.65;100.00
2268;BME280;11052;43.338;25.502;2023-06-22T06:36:17;100922.56;;;29.56;100.00
2268;BME280;11052;43.338;25.502;2023-06-22T06:38:44;100922.63;;;29.47;100.00
2268;BME280;11052;43.338;25.502;2023-06-22T06:41:12;100926.75;;;29.23;100.00
2268;BME280;11052;43.338;25.502;2023-06-22T06:43:40;100926.75;;;29.77;100.00
2268;BME280;11052;43.338;25.502;2023-06-22T06:46:08;100924.25;;;30.19;100.00
2268;BME280;11052;43.338;25.502;2023-06-22T06:48:35;100931.78;;;30.23;100.00
2268;BME280;11052;43.338;25.502;2023-06-22T06:51:02;100930.00;;;30.32;100.00
2268;BME280;11052;43.338;25.502;2023-06-22T06:53:31;100935.84;;;30.27;100.00
2268;BME280;11052;43.338;25.502;2023-06-22T06:55:58;100922.00;;;30.40;100.00
2268;BME280;11052;43.338;25.502;2023-06-22T06:58:25;100925.16;;;30.36;100.00
2268;BME280;11052;43.338;25.502;2023-06-22T07:00:52;100922.00;;;30.40;100.00
2268;BME280;11052;43.338;25.502;2023-06-22T07:03:19;100920.88;;;30.85;100.00
2268;BME280;11052;43.338;25.502;2023-06-22T07:05:46;100925.75;;;30.89;100.00
2268;BME280;11052;43.338;25.502;2023-06-22T07:08:13;100920.38;;;30.81;100.00
2268;BME280;11052;43.338;25.502;2023-06-22T07:10:41;100916.50;;;30.76;93.66
2268;BME280;11052;43.338;25.502;2023-06-22T07:13:09;100914.38;;;30.87;98.91
2268;BME280;11052;43.338;25.502;2023-06-22T07:15:36;100916.88;;;30.55;95.47
2268;BME280;11052;43.338;25.502;2023-06-22T07:18:03;100918.53;;;30.82;100.00
2268;BME280;11052;43.338;25.502;2023-06-22T07:20:30;100918.78;;;31.05;100.00
2268;BME280;11052;43.338;25.502;2023-06-22T07:22:57;100926.06;;;30.52;90.70
2268;BME280;11052;43.338;25.502;2023-06-22T07:25:25;100922.03;;;30.48;92.27
2268;BME280;11052;43.338;25.502;2023-06-22T07:28:01;100917.88;;;30.54;95.64
2268;BME280;11052;43.338;25.502;2023-06-22T07:30:29;100913.84;;;30.50;90.86
2268;BME280;11052;43.338;25.502;2023-06-22T07:32:57;100914.44;;;30.61;86.57
2268;BME280;11052;43.338;25.502;2023-06-22T07:35:29;100917.47;;;30.41;88.91
2268;BME280;11052;43.338;25.502;2023-06-22T07:37:56;100921.34;;;30.72;90.32
2268;BME280;11052;43.338;25.502;2023-06-22T07:40:23;100917.84;;;30.80;90.42
2268;BME280;11052;43.338;25.502;2023-06-22T07:42:50;100915.22;;;30.96;88.36
2268;BME280;11052;43.338;25.502;2023-06-22T07:45:20;100919.38;;;30.82;83.79
2268;BME280;11052;43.338;25.502;2023-06-22T07:47:48;100917.88;;;30.88;88.19
2268;BME280;11052;43.338;25.502;2023-06-22T07:50:15;100919.50;;;30.73;88.38
2268;BME280;11052;43.338;25.502;2023-06-22T07:52:46;100922.06;;;30.56;86.15
2268;BME280;11052;43.338;25.502;2023-06-22T07:55:13;100915.69;;;30.83;90.38
2268;BME280;11052;43.338;25.502;2023-06-22T07:57:40;100923.09;;;30.97;83.56
2268;BME280;11052;43.338;25.502;2023-06-22T08:00:08;100920.25;;;30.57;86.05
2268;BME280;11052;43.338;25.502;2023-06-22T08:02:42;100922.44;;;30.95;88.14
2268;BME280;11052;43.338;25.502;2023-06-22T08:05:10;100920.50;;;31.14;80.66
2268;BME280;11052;43.338;25.502;2023-06-22T08:07:37;100922.41;;;30.87;78.58
2268;BME280;11052;43.338;25.502;2023-06-22T08:10:05;100918.44;;;31.08;80.47
2268;BME280;11052;43.338;25.502;2023-06-22T08:12:32;100915.16;;;31.14;80.63
2268;BME280;11052;43.338;25.502;2023-06-22T08:15:00;100918.34;;;31.34;78.33
2268;BME280;11052;43.338;25.502;2023-06-22T08:17:27;100906.78;;;31.49;77.65
2268;BME280;11052;43.338;25.502;2023-06-22T08:19:55;100907.94;;;31.30;74.79
2268;BME280;11052;43.338;25.502;2023-06-22T08:22:22;100905.75;;;31.26;74.66
2268;BME280;11052;43.338;25.502;2023-06-22T08:24:49;100904.78;;;31.43;78.87
2268;BME280;11052;43.338;25.502;2023-06-22T08:27:16;100905.09;;;31.32;77.93
2268;BME280;11052;43.338;25.502;2023-06-22T08:29:46;100908.13;;;31.45;73.09
2268;BME280;11052;43.338;25.502;2023-06-22T08:32:15;100902.31;;;31.74;82.69
2268;BME280;11052;43.338;25.502;2023-06-22T08:34:42;100902.78;;;32.02;72.65
2268;BME280;11052;43.338;25.502;2023-06-22T08:37:10;100907.97;;;32.04;79.09
2268;BME280;11052;43.338;25.502;2023-06-22T08:39:37;100905.47;;;31.86;77.72
2268;BME280;11052;43.338;25.502;2023-06-22T08:42:05;100914.19;;;31.80;69.35
2268;BME280;11052;43.338;25.502;2023-06-22T08:44:32;100913.50;;;31.94;75.41
2268;BME280;11052;43.338;25.502;2023-06-22T08:46:59;100920.44;;;32.44;76.28
2268;BME280;11052;43.338;25.502;2023-06-22T08:49:27;100915.47;;;32.24;65.51
2268;BME280;11052;43.338;25.502;2023-06-22T08:51:54;100915.97;;;32.28;64.77
2268;BME280;11052;43.338;25.502;2023-06-22T08:54:24;100905.75;;;32.23;62.29
2268;BME280;11052;43.338;25.502;2023-06-22T08:56:51;100905.19;;;32.44;65.60
2268;BME280;11052;43.338;25.502;2023-06-22T08:59:18;100911.16;;;32.63;62.14
2268;BME280;11052;43.338;25.502;2023-06-22T09:01:45;100906.66;;;32.55;66.04
2268;BME280;11052;43.338;25.502;2023-06-22T09:04:14;100896.50;;;32.26;66.13
2268;BME280;11052;43.338;25.502;2023-06-22T09:06:42;100905.38;;;32.18;64.60
2268;BME280;11052;43.338;25.502;2023-06-22T09:09:12;100909.53;;;32.45;61.78
2268;BME280;11052;43.338;25.502;2023-06-22T09:11:41;100910.66;;;32.59;57.99
2268;BME280;11052;43.338;25.502;2023-06-22T09:14:08;100906.56;;;32.79;63.02
2268;BME280;11052;43.338;25.502;2023-06-22T09:16:35;100908.44;;;32.79;60.14
2268;BME280;11052;43.338;25.502;2023-06-22T09:19:02;100903.38;;;32.84;59.59
2268;BME280;11052;43.338;25.502;2023-06-22T09:21:29;100906.63;;;32.63;61.01
2268;BME280;11052;43.338;25.502;2023-06-22T09:23:57;100902.13;;;32.55;64.92
2268;BME280;11052;43.338;25.502;2023-06-22T09:26:24;100896.00;;;32.78;64.38
2268;BME280;11052;43.338;25.502;2023-06-22T09:28:53;100901.66;;;33.14;62.63
2268;BME280;11052;43.338;25.502;2023-06-22T09:31:20;100897.94;;;33.15;60.22
2268;BME280;11052;43.338;25.502;2023-06-22T09:33:51;100894.25;;;32.93;63.00
2268;BME280;11052;43.338;25.502;2023-06-22T09:36:18;100890.88;;;32.52;66.52
2268;BME280;11052;43.338;25.502;2023-06-22T09:38:45;100889.41;;;32.41;63.95
2268;BME280;11052;43.338;25.502;2023-06-22T09:41:12;100892.69;;;32.59;65.17
2268;BME280;11052;43.338;25.502;2023-06-22T09:43:40;100889.56;;;33.10;70.84
2268;BME280;11052;43.338;25.502;2023-06-22T09:46:11;100891.34;;;33.48;67.94
2268;BME280;11052;43.338;25.502;2023-06-22T09:48:39;100893.59;;;33.97;65.23
2268;BME280;11052;43.338;25.502;2023-06-22T09:51:07;100885.06;;;34.08;65.04
2268;BME280;11052;43.338;25.502;2023-06-22T09:53:34;100888.78;;;34.22;61.89
2268;BME280;11052;43.338;25.502;2023-06-22T09:56:01;100881.09;;;33.67;58.99
2268;BME280;11052;43.338;25.502;2023-06-22T09:58:28;100884.16;;;33.64;58.73
2268;BME280;11052;43.338;25.502;2023-06-22T10:00:55;100881.78;;;33.83;62.89
2268;BME280;11052;43.338;25.502;2023-06-22T10:03:24;100875.50;;;34.20;65.12
2268;BME280;11052;43.338;25.502;2023-06-22T10:05:51;100879.06;;;34.36;64.37
2268;BME280;11052;43.338;25.502;2023-06-22T10:08:18;100880.72;;;34.07;55.17
2268;BME280;11052;43.338;25.502;2023-06-22T10:10:46;100883.22;;;34.09;54.35
2268;BME280;11052;43.338;25.502;2023-06-22T10:13:13;100887.47;;;34.03;57.88
2268;BME280;11052;43.338;25.502;2023-06-22T10:15:41;100876.84;;;33.72;56.23
2268;BME280;11052;43.338;25.502;2023-06-22T10:18:08;100872.69;;;33.84;54.29
2268;BME280;11052;43.338;25.502;2023-06-22T10:20:37;100873.22;;;33.65;56.98
2268;BME280;11052;43.338;25.502;2023-06-22T10:23:04;100881.25;;;34.03;57.90
2268;BME280;11052;43.338;25.502;2023-06-22T10:25:31;100881.16;;;33.96;56.99
2268;BME280;11052;43.338;25.502;2023-06-22T10:27:58;100877.56;;;34.18;55.73
2268;BME280;11052;43.338;25.502;2023-06-22T10:30:25;100874.78;;;34.27;56.22
2268;BME280;11052;43.338;25.502;2023-06-22T10:32:54;100876.09;;;34.45;56.37
2268;BME280;11052;43.338;25.502;2023-06-22T10:35:21;100865.03;;;34.76;54.40
2268;BME280;11052;43.338;25.502;2023-06-22T10:37:50;100864.19;;;34.55;56.72
2268;BME280;11052;43.338;25.502;2023-06-22T10:40:18;100862.72;;;34.37;60.26
2268;BME280;11052;43.338;25.502;2023-06-22T10:42:45;100862.06;;;34.20;54.10
2268;BME280;11052;43.338;25.502;2023-06-22T10:45:12;100862.53;;;34.54;53.71
2268;BME280;11052;43.338;25.502;2023-06-22T10:47:39;100850.47;;;34.71;57.14
2268;BME280;11052;43.338;25.502;2023-06-22T10:50:08;100848.88;;;34.91;59.46
2268;BME280;11052;43.338;25.502;2023-06-22T10:52:35;100851.94;;;34.88;58.36
2268;BME280;11052;43.338;25.502;2023-06-22T10:55:06;100848.03;;;34.91;52.27
2268;BME280;11052;43.338;25.502;2023-06-22T10:57:33;100842.78;;;34.68;55.27
2268;BME280;11052;43.338;25.502;2023-06-22T11:00:00;100837.47;;;34.74;58.09
2268;BME280;11052;43.338;25.502;2023-06-22T11:02:30;100838.53;;;34.95;54.85
2268;BME280;11052;43.338;25.502;2023-06-22T11:04:57;100828.72;;;35.08;58.75
2268;BME280;11052;43.338;25.502;2023-06-22T11:07:26;100840.97;;;34.54;53.97
2268;BME280;11052;43.338;25.502;2023-06-22T11:09:54;100844.22;;;34.19;54.97
2268;BME280;11052;43.338;25.502;2023-06-22T11:12:23;100841.16;;;34.23;59.31
2268;BME280;11052;43.338;25.502;2023-06-22T11:14:50;100837.38;;;34.17;57.45
2268;BME280;11052;43.338;25.502;2023-06-22T11:17:17;100838.47;;;34.23;55.11
2268;BME280;11052;43.338;25.502;2023-06-22T11:19:45;100835.69;;;34.45;55.95
2268;BME280;11052;43.338;25.502;2023-06-22T11:22:13;100836.81;;;34.07;53.47
2268;BME280;11052;43.338;25.502;2023-06-22T11:24:40;100850.28;;;34.36;58.53
2268;BME280;11052;43.338;25.502;2023-06-22T11:27:07;100838.50;;;34.37;56.30
2268;BME280;11052;43.338;25.502;2023-06-22T11:29:35;100835.13;;;34.71;55.93
2268;BME280;11052;43.338;25.502;2023-06-22T11:32:06;100832.88;;;34.90;55.98
2268;BME280;11052;43.338;25.502;2023-06-22T11:34:33;100823.34;;;34.72;54.75
2268;BME280;11052;43.338;25.502;2023-06-22T11:37:00;100828.91;;;34.86;56.44
2268;BME280;11052;43.338;25.502;2023-06-22T11:39:28;100839.47;;;34.66;55.18
2268;BME280;11052;43.338;25.502;2023-06-22T11:41:55;100834.31;;;34.35;57.05
2268;BME280;11052;43.338;25.502;2023-06-22T11:44:22;100827.16;;;33.83;57.49
2268;BME280;11052;43.338;25.502;2023-06-22T11:46:50;100830.38;;;33.64;58.34
2268;BME280;11052;43.338;25.502;2023-06-22T11:49:17;100819.69;;;33.55;58.75
2268;BME280;11052;43.338;25.502;2023-06-22T11:51:44;100819.19;;;33.37;56.96
2268;BME280;11052;43.338;25.502;2023-06-22T11:54:12;100821.72;;;33.53;55.70
2268;BME280;11052;43.338;25.502;2023-06-22T11:56:42;100820.25;;;33.66;54.72
2268;BME280;11052;43.338;25.502;2023-06-22T11:59:10;100814.06;;;34.09;55.41
2268;BME280;11052;43.338;25.502;2023-06-22T12:01:37;100809.06;;;34.36;58.71
2268;BME280;11052;43.338;25.502;2023-06-22T12:04:05;100809.41;;;34.47;55.41
2268;BME280;11052;43.338;25.502;2023-06-22T12:06:33;100805.13;;;34.53;54.05
2268;BME280;11052;43.338;25.502;2023-06-22T12:09:02;100802.97;;;34.63;53.59
2268;BME280;11052;43.338;25.502;2023-06-22T12:11:33;100804.56;;;34.79;56.74
2268;BME280;11052;43.338;25.502;2023-06-22T12:14:00;100807.19;;;34.72;54.94
2268;BME280;11052;43.338;25.502;2023-06-22T12:16:30;100804.56;;;34.79;57.11
2268;BME280;11052;43.338;25.502;2023-06-22T12:18:57;100806.78;;;35.11;58.53
2268;BME280;11052;43.338;25.502;2023-06-22T12:21:26;100807.72;;;35.25;55.13
2268;BME280;11052;43.338;25.502;2023-06-22T12:23:53;100798.53;;;35.20;54.41
2268;BME280;11052;43.338;25.502;2023-06-22T12:26:21;100805.47;;;35.29;55.43
2268;BME280;11052;43.338;25.502;2023-06-22T12:28:48;100799.97;;;35.37;55.02
2268;BME280;11052;43.338;25.502;2023-06-22T12:31:15;100799.19;;;35.43;55.13
2268;BME280;11052;43.338;25.502;2023-06-22T12:33:42;100798.16;;;35.44;49.96
2268;BME280;11052;43.338;25.502;2023-06-22T12:36:09;100791.97;;;35.50;50.62
2268;BME280;11052;43.338;25.502;2023-06-22T12:38:38;100791.78;;;35.52;53.80
2268;BME280;11052;43.338;25.502;2023-06-22T12:41:05;100783.72;;;35.30;49.75
2268;BME280;11052;43.338;25.502;2023-06-22T12:43:32;100780.66;;;35.12;51.06
2268;BME280;11052;43.338;25.502;2023-06-22T12:45:59;100780.66;;;35.12;52.72
2268;BME280;11052;43.338;25.502;2023-06-22T12:48:27;100768.69;;;35.21;51.23
2268;BME280;11052;43.338;25.502;2023-06-22T12:50:55;100775.19;;;35.05;50.63